Time;durP1;ratioP1;P1;durP2;ratioP2;P2;SDS_P1;SDS_P2;PMS_P1;PMS_P2;Temp;Humidity;BMP_temperature;BMP_pressure;BME280_temperature;BME280_humidity;BME280_pressure;Samples;Min_cycle;Max_cycle;Signal;HPM_P1;HPM_P2
2023/07/11 00:01:45;;;;;;;12.88;3.92;;;;;;;14.63;100.00;101398.91;4955581;28;20036;-84
2023/07/11 00:04:10;;;;;;;6.37;4.07;;;;;;;14.57;100.00;101397.78;4966479;28;20029;-84
2023/07/11 00:06:36;;;;;;;8.05;3.78;;;;;;;14.59;100.00;101398.44;4941942;28;20047;-84
2023/07/11 00:09:01;;;;;;;7.70;3.37;;;;;;;14.58;100.00;101410.19;4961384;28;20027;-84
2023/07/11 00:11:26;;;;;;;10.20;4.60;;;;;;;14.49;100.00;101412.03;4962155;28;20035;-86
2023/07/11 00:13:53;;;;;;;13.27;4.33;;;;;;;14.49;100.00;101427.28;4966120;28;20548;-84
2023/07/11 00:16:19;;;;;;;10.77;3.60;;;;;;;14.46;100.00;101433.03;4941194;28;20023;-83
2023/07/11 00:18:45;;;;;;;6.82;3.65;;;;;;;14.45;100.00;101439.41;4939370;28;20051;-84
2023/07/11 00:21:10;;;;;;;12.03;3.87;;;;;;;14.43;100.00;101438.75;4966167;28;20123;-84
2023/07/11 00:23:36;;;;;;;16.17;4.38;;;;;;;14.35;100.00;101437.75;4966352;28;20126;-85
2023/07/11 00:26:03;;;;;;;5.22;3.38;;;;;;;14.27;100.00;101434.25;4950821;28;20115;-84
2023/07/11 00:28:28;;;;;;;11.02;5.20;;;;;;;14.31;100.00;101431.03;4958646;28;20027;-85
2023/07/11 00:30:54;;;;;;;9.30;4.05;;;;;;;14.26;100.00;101425.34;4930111;29;20043;-85
2023/07/11 00:33:23;;;;;;;5.95;3.33;;;;;;;14.19;100.00;101410.94;4961540;28;20031;-85
2023/07/11 00:35:53;;;;;;;8.60;3.70;;;;;;;14.19;100.00;101410.94;4963225;28;20050;-85
2023/07/11 00:38:20;;;;;;;9.55;4.13;;;;;;;14.24;100.00;101413.09;4947518;29;20910;-85
2023/07/11 00:40:46;;;;;;;;;;;;;;;14.22;100.00;101421.31;4960568;28;20035;-86
2023/07/11 00:43:15;;;;;;;7.90;4.10;;;;;;;14.09;100.00;101392.31;4940892;28;20032;-87
2023/07/11 00:46:10;;;;;;;11.15;3.40;;;;;;;14.15;100.00;101404.22;4934388;29;20024;-86
2023/07/11 00:48:38;;;;;;;7.93;3.83;;;;;;;14.08;100.00;101412.09;4946078;29;20105;-85
2023/07/11 00:51:10;;;;;;;6.60;3.53;;;;;;;14.09;100.00;101404.88;4966304;28;20031;-85
2023/07/11 00:53:39;;;;;;;18.52;5.47;;;;;;;14.08;100.00;101404.03;4942794;28;20043;-86
2023/07/11 00:56:11;;;;;;;9.10;5.03;;;;;;;14.01;100.00;101404.91;4919230;29;20106;-87
2023/07/11 00:58:40;;;;;;;8.02;4.18;;;;;;;13.96;100.00;101400.03;4943665;28;20055;-85
2023/07/11 01:01:06;;;;;;;13.25;5.63;;;;;;;13.91;100.00;101395.16;4964830;28;20015;-85
2023/07/11 01:03:32;;;;;;;15.57;4.60;;;;;;;13.87;100.00;101388.44;4966139;28;20054;-86
2023/07/11 01:05:58;;;;;;;7.10;4.50;;;;;;;13.87;100.00;101384.94;4957289;28;20518;-86
2023/07/11 01:08:24;;;;;;;10.13;4.05;;;;;;;13.84;100.00;101374.56;4966435;28;20027;-85
2023/07/11 01:10:49;;;;;;;;;;;;;;;13.84;100.00;101379.91;4966711;28;20035;-85
2023/07/11 01:13:15;;;;;;;;;;;;;;;13.81;100.00;101370.31;4946298;28;19914;-85
2023/07/11 01:15:40;;;;;;;6.82;3.40;;;;;;;13.77;100.00;101366.31;4947408;28;20005;-85
2023/07/11 01:18:08;;;;;;;9.40;3.90;;;;;;;13.71;100.00;101356.25;4946780;28;20043;-86
2023/07/11 01:20:33;;;;;;;8.60;4.03;;;;;;;13.75;100.00;101365.66;4930334;29;20181;-83
2023/07/11 01:23:01;;;;;;;8.35;4.00;;;;;;;13.69;100.00;101356.41;4964174;28;20374;-86
2023/07/11 01:25:26;;;;;;;9.83;4.90;;;;;;;13.65;100.00;101355.09;4967841;28;20033;-85
2023/07/11 01:27:51;;;;;;;9.33;4.50;;;;;;;13.65;100.00;101360.47;4943885;29;20565;-87
2023/07/11 01:30:20;;;;;;;13.25;4.22;;;;;;;13.65;100.00;101354.22;4956784;28;20115;-85
2023/07/11 01:32:47;;;;;;;9.38;5.15;;;;;;;13.59;100.00;101354.91;4954015;29;20111;-84
2023/07/11 01:35:13;;;;;;;8.90;4.30;;;;;;;13.57;100.00;101347.03;4969884;28;20046;-85
2023/07/11 01:37:39;;;;;;;8.80;4.40;;;;;;;13.55;100.00;101348.22;4962444;28;20111;-84
2023/07/11 01:40:05;;;;;;;11.43;4.37;;;;;;;13.57;100.00;101352.41;4936958;29;20456;-84
2023/07/11 01:42:31;;;;;;;9.63;3.72;;;;;;;13.56;100.00;101344.53;4961519;28;20074;-84
2023/07/11 01:44:57;;;;;;;7.95;3.65;;;;;;;13.54;100.00;101352.75;4961706;28;20482;-85
2023/07/11 01:47:23;;;;;;;9.87;3.80;;;;;;;13.49;100.00;101347.88;4969742;28;20090;-87
2023/07/11 01:49:48;;;;;;;8.17;4.93;;;;;;;13.44;100.00;101334.13;4964512;28;20036;-84
2023/07/11 01:52:17;;;;;;;9.23;4.00;;;;;;;13.43;100.00;101337.81;4965219;28;20291;-86
2023/07/11 01:54:42;;;;;;;12.75;4.80;;;;;;;13.39;100.00;101338.28;4953356;29;20098;-85
2023/07/11 01:57:08;;;;;;;10.50;4.22;;;;;;;13.37;100.00;101330.44;4969707;28;20031;-85
2023/07/11 01:59:35;;;;;;;9.77;4.22;;;;;;;13.34;100.00;101335.28;4969214;28;20042;-84
2023/07/11 02:02:01;;;;;;;10.13;4.20;;;;;;;13.32;100.00;101326.56;4953200;28;20118;-82
2023/07/11 02:04:26;;;;;;;7.68;4.40;;;;;;;13.30;100.00;101334.78;4969349;28;20031;-83
2023/07/11 02:06:52;;;;;;;9.03;4.37;;;;;;;13.30;100.00;101326.75;4961364;28;20032;-85
2023/07/11 02:09:19;;;;;;;13.80;5.77;;;;;;;13.28;100.00;101326.91;4969136;28;20041;-85
2023/07/11 02:11:45;;;;;;;11.32;4.38;;;;;;;13.28;100.00;101332.25;4959386;28;20035;-85
2023/07/11 02:14:18;;;;;;;9.32;4.40;;;;;;;13.29;100.00;101335.78;4967388;28;20042;-85
2023/07/11 02:16:44;;;;;;;8.27;4.10;;;;;;;13.23;100.00;101323.03;4967242;28;20896;-84
2023/07/11 02:19:14;;;;;;;;;;;;;;;13.23;100.00;101333.75;4968609;28;20042;-84
2023/07/11 02:21:40;;;;;;;9.63;4.80;;;;;;;13.23;100.00;101334.59;4936758;28;20014;-85
2023/07/11 02:24:08;;;;;;;9.50;4.40;;;;;;;13.22;100.00;101340.09;4968069;28;20128;-86
2023/07/11 02:26:35;;;;;;;11.32;4.60;;;;;;;13.18;100.00;101330.69;4960658;28;20090;-85
2023/07/11 02:29:00;;;;;;;13.93;4.47;;;;;;;13.13;100.00;101333.03;4968394;28;20030;-86
2023/07/11 02:31:26;;;;;;;9.73;4.18;;;;;;;13.17;100.00;101334.41;4944272;28;20122;-85
2023/07/11 02:33:53;;;;;;;14.60;4.65;;;;;;;13.17;100.00;101319.16;4968060;28;20030;-86
2023/07/11 02:36:18;;;;;;;7.68;3.88;;;;;;;13.14;100.00;101318.66;4947015;28;20070;-85
2023/07/11 02:38:44;;;;;;;9.15;4.00;;;;;;;13.17;100.00;101315.63;4966238;28;20114;-84
2023/07/11 02:41:09;;;;;;;9.73;4.00;;;;;;;13.16;100.00;101305.91;4944398;28;20095;-84
2023/07/11 02:43:34;;;;;;;9.87;5.03;;;;;;;13.16;100.00;101305.91;4940704;29;20031;-86
2023/07/11 02:46:00;;;;;;;11.93;4.60;;;;;;;13.16;100.00;101305.91;4935259;29;20036;-86
2023/07/11 02:48:26;;;;;;;7.83;4.13;;;;;;;13.14;100.00;101294.53;4960836;28;20030;-86
2023/07/11 02:50:52;;;;;;;10.82;5.55;;;;;;;13.15;100.00;101304.22;4942929;28;20046;-85
2023/07/11 02:53:17;;;;;;;6.43;4.10;;;;;;;13.17;100.00;101307.59;4941042;29;20103;-85
2023/07/11 02:55:43;;;;;;;9.20;3.78;;;;;;;13.16;100.00;101300.53;4952321;28;20041;-83
2023/07/11 02:58:08;;;;;;;8.13;3.92;;;;;;;13.16;100.00;101289.81;4968388;28;20039;-85
2023/07/11 03:00:34;;;;;;;8.87;3.70;;;;;;;13.17;100.00;101286.16;4968182;28;20490;-85
2023/07/11 03:02:59;;;;;;;9.13;5.27;;;;;;;13.17;100.00;101286.16;4956054;28;20490;-84
2023/07/11 03:05:24;;;;;;;12.63;4.27;;;;;;;13.15;100.00;101285.47;4950824;28;20401;-85
2023/07/11 03:07:50;;;;;;;8.50;4.40;;;;;;;13.23;100.00;101290.84;4960054;28;20071;-86
2023/07/11 03:10:15;;;;;;;7.70;4.30;;;;;;;13.21;100.00;101292.84;4968020;28;20062;-85
2023/07/11 03:12:40;;;;;;;17.93;6.73;;;;;;;13.25;100.00;101299.53;4967682;28;20082;-85
2023/07/11 03:15:07;;;;;;;10.47;4.23;;;;;;;13.28;100.00;101296.56;4967737;28;20127;-85
2023/07/11 03:17:32;;;;;;;9.30;4.45;;;;;;;13.29;100.00;101292.88;4967559;28;20122;-86
2023/07/11 03:19:57;;;;;;;7.63;4.23;;;;;;;13.29;100.00;101290.19;4951732;28;20758;-85
2023/07/11 03:22:23;;;;;;;10.87;4.57;;;;;;;13.31;100.00;101288.19;4962273;28;20020;-86
2023/07/11 03:24:48;;;;;;;11.03;4.57;;;;;;;13.32;100.00;101292.53;4965063;28;20046;-85
2023/07/11 03:27:13;;;;;;;8.87;4.43;;;;;;;13.38;100.00;101299.09;4963976;28;20083;-83
2023/07/11 03:29:39;;;;;;;13.33;4.63;;;;;;;13.38;100.00;101299.09;4928438;29;20050;-85
2023/07/11 03:32:05;;;;;;;7.03;4.10;;;;;;;13.35;100.00;101294.91;4943971;28;20074;-84
2023/07/11 03:34:31;;;;;;;11.18;4.55;;;;;;;13.40;100.00;101291.72;4967787;28;20035;-85
2023/07/11 03:36:57;;;;;;;14.30;4.72;;;;;;;13.43;100.00;101292.22;4967632;28;20026;-86
2023/07/11 03:39:23;;;;;;;9.45;4.47;;;;;;;13.44;100.00;101276.97;4978939;28;20094;-83
2023/07/11 03:41:49;;;;;;;11.98;4.72;;;;;;;13.44;100.00;101283.16;4967778;28;20838;-85
2023/07/11 03:44:15;;;;;;;7.30;4.18;;;;;;;13.48;100.00;101289.03;4951079;28;20043;-85
2023/07/11 03:46:40;;;;;;;9.23;4.55;;;;;;;13.50;100.00;101284.31;4934658;28;20030;-86
2023/07/11 03:49:06;;;;;;;14.83;5.07;;;;;;;13.57;100.00;101285.31;4959128;28;20047;-86
2023/07/11 03:51:31;;;;;;;13.05;4.95;;;;;;;13.59;100.00;101279.81;4962800;28;20042;-85
2023/07/11 03:53:57;;;;;;;10.75;4.40;;;;;;;13.60;100.00;101271.59;4924893;29;20118;-84
2023/07/11 03:56:22;;;;;;;11.80;5.10;;;;;;;13.66;100.00;101278.13;4927710;29;20406;-85
2023/07/11 03:58:48;;;;;;;9.77;4.77;;;;;;;13.75;100.00;101278.94;4931931;29;20032;-85
2023/07/11 04:01:13;;;;;;;9.57;4.40;;;;;;;13.87;100.00;101283.78;4951154;28;20031;-84
2023/07/11 04:03:39;;;;;;;9.90;5.07;;;;;;;14.02;100.00;101285.75;4944159;28;20031;-84
2023/07/11 04:06:06;;;;;;;9.03;4.27;;;;;;;14.14;100.00;101295.09;4958952;28;20054;-84
2023/07/11 04:08:31;;;;;;;11.88;5.13;;;;;;;14.21;100.00;101271.94;4965243;28;20023;-85
2023/07/11 04:10:59;;;;;;;10.73;4.53;;;;;;;14.37;100.00;101284.44;4966666;28;20071;-85
2023/07/11 04:13:25;;;;;;;9.70;4.10;;;;;;;14.49;100.00;101288.47;4962889;28;20143;-85
2023/07/11 04:15:50;;;;;;;10.57;5.13;;;;;;;14.64;100.00;101279.69;4950467;29;20062;-85
2023/07/11 04:18:15;;;;;;;8.93;5.00;;;;;;;14.74;100.00;101273.06;4958554;28;20023;-85
2023/07/11 04:20:41;;;;;;;10.77;4.90;;;;;;;14.90;100.00;101268.59;4939685;28;20036;-85
2023/07/11 04:23:06;;;;;;;7.13;4.73;;;;;;;15.01;100.00;101265.50;4966012;28;20031;-86
2023/07/11 04:25:31;;;;;;;15.53;5.50;;;;;;;15.16;100.00;101261.00;4942602;28;20027;-85
2023/07/11 04:27:57;;;;;;;11.27;4.77;;;;;;;15.19;100.00;101251.72;4966484;28;20039;-85
2023/07/11 04:30:22;;;;;;;20.40;5.23;;;;;;;15.18;100.00;101226.69;4966453;28;20035;-85
2023/07/11 04:32:48;;;;;;;22.50;5.03;;;;;;;15.28;100.00;101206.78;4958091;28;20028;-85
2023/07/11 04:35:14;;;;;;;;;;;;;;;15.37;100.00;101194.94;4959026;28;20035;-84
2023/07/11 04:37:40;;;;;;;19.98;4.75;;;;;;;15.43;100.00;101183.44;4937021;28;19915;-85
2023/07/11 04:40:06;;;;;;;8.13;4.00;;;;;;;15.58;100.00;101176.22;4942420;29;20039;-85
2023/07/11 04:42:32;;;;;;;6.85;3.70;;;;;;;15.71;100.00;101161.28;4964828;28;20024;-85
2023/07/11 04:44:57;;;;;;;13.50;4.15;;;;;;;15.79;100.00;101158.50;4935439;29;20040;-85
2023/07/11 04:47:22;;;;;;;10.80;4.33;;;;;;;15.90;100.00;101163.44;4968085;28;20105;-84
2023/07/11 04:49:48;;;;;;;11.73;3.07;;;;;;;15.87;100.00;101134.16;4966933;28;20166;-86
2023/07/11 04:52:14;;;;;;;11.57;3.50;;;;;;;15.89;100.00;101118.66;4931505;29;20047;-84
2023/07/11 04:54:39;;;;;;;13.80;3.83;;;;;;;15.95;100.00;101128.69;4932895;29;20043;-84
2023/07/11 04:57:04;;;;;;;11.60;3.43;;;;;;;16.12;100.00;101115.84;4966825;28;20453;-85
2023/07/11 04:59:30;;;;;;;7.83;3.20;;;;;;;16.29;100.00;101124.50;4939958;28;20036;-86
2023/07/11 05:01:55;;;;;;;10.80;3.20;;;;;;;16.33;100.00;101120.41;4949605;29;20024;-85
2023/07/11 05:04:21;;;;;;;10.80;2.87;;;;;;;16.52;100.00;101113.56;4950455;28;20117;-85
2023/07/11 05:06:47;;;;;;;9.47;3.10;;;;;;;16.55;100.00;101085.38;4962430;28;20031;-85
2023/07/11 05:09:15;;;;;;;15.07;3.67;;;;;;;16.86;100.00;101093.97;4958172;28;20098;-85
2023/07/11 05:11:40;;;;;;;7.63;2.60;;;;;;;17.13;100.00;101077.97;4950738;29;20569;-85
2023/07/11 05:14:05;;;;;;;9.57;2.70;;;;;;;17.36;100.00;101047.19;4937956;29;20032;-85
2023/07/11 05:16:31;;;;;;;8.73;3.53;;;;;;;17.30;100.00;101002.94;4968695;28;20033;-85
2023/07/11 05:18:58;;;;;;;9.52;2.63;;;;;;;17.32;100.00;100965.78;4953895;28;20035;-85
2023/07/11 05:21:25;;;;;;;9.93;2.78;;;;;;;17.47;100.00;100950.28;4965846;28;20019;-84
2023/07/11 05:23:50;;;;;;;7.63;2.45;;;;;;;17.30;100.00;100933.63;4945690;28;20125;-84
2023/07/11 05:26:17;;;;;;;9.27;2.50;;;;;;;17.19;100.00;100961.19;4933870;29;20116;-85
2023/07/11 05:28:44;;;;;;;7.13;2.28;;;;;;;17.44;100.00;100971.44;4934592;29;20447;-87
2023/07/11 05:31:10;;;;;;;12.88;2.53;;;;;;;17.85;100.00;100946.25;4965870;28;20609;-86
2023/07/11 05:33:36;;;;;;;12.13;2.78;;;;;;;18.28;100.00;100924.22;4951853;29;20050;-86
2023/07/11 05:39:11;;;;;;;12.85;2.63;;;;;;;18.77;100.00;100810.16;4946824;28;20039;-86
2023/07/11 05:41:44;;;;;;;8.52;2.65;;;;;;;19.39;100.00;100728.41;4968887;28;20042;-87
2023/07/11 05:44:11;;;;;;;11.82;2.30;;;;;;;19.06;100.00;100652.88;4953743;28;20117;-86
2023/07/11 05:46:36;;;;;;;10.00;2.03;;;;;;;18.87;100.00;100535.69;4954887;28;20031;-86
2023/07/11 05:49:03;;;;;;;8.90;2.72;;;;;;;18.85;100.00;100624.38;4935371;29;20474;-86
2023/07/11 05:51:29;;;;;;;;;;;;;;;18.64;100.00;100679.59;4963674;28;20122;-87
2023/07/11 05:53:54;;;;;;;6.80;2.60;;;;;;;18.31;100.00;100718.44;4951411;28;20062;-86
2023/07/11 05:56:19;;;;;;;8.77;2.23;;;;;;;19.11;100.00;100821.66;4969692;28;20157;-88
2023/07/11 05:58:47;;;;;;;8.77;2.63;;;;;;;20.01;100.00;100658.00;4970300;28;20035;-84
2023/07/11 06:01:15;;;;;;;8.73;2.38;;;;;;;20.11;100.00;100457.78;4971198;28;20022;-85
2023/07/11 06:03:41;;;;;;;4.07;1.60;;;;;;;21.12;100.00;100456.84;4947908;28;20066;-85
2023/07/11 06:06:08;;;;;;;9.93;2.10;;;;;;;20.21;100.00;100313.56;4965757;28;20114;-84
2023/07/11 06:08:34;;;;;;;8.95;2.70;;;;;;;19.86;100.00;100470.66;4965559;28;20038;-87
2023/07/11 06:11:01;;;;;;;8.98;2.60;;;;;;;20.11;100.00;100429.81;4969765;28;20505;-86
2023/07/11 06:13:28;;;;;;;7.93;2.28;;;;;;;19.33;100.00;100482.97;4969340;28;20043;-86
2023/07/11 06:16:05;;;;;;;11.65;2.72;;;;;;;19.49;100.00;100549.22;4963764;28;20028;-87
2023/07/11 06:18:37;;;;;;;7.68;2.20;;;;;;;20.16;100.00;100623.22;4962534;28;20125;-87
2023/07/11 06:21:03;;;;;;;10.63;2.83;;;;;;;20.64;100.00;100538.25;4960531;28;20043;-87
2023/07/11 06:23:29;;;;;;;6.53;2.03;;;;;;;21.78;100.00;100515.25;4958883;28;20094;-86
2023/07/11 06:25:54;;;;;;;9.75;2.55;;;;;;;21.31;100.00;100336.16;4951244;28;20478;-87
2023/07/11 06:28:19;;;;;;;13.00;3.20;;;;;;;20.76;100.00;100380.13;4967955;28;20024;-86
2023/07/11 06:30:45;;;;;;;8.13;2.13;;;;;;;20.35;100.00;100422.56;4950299;29;20037;-89
2023/07/11 06:33:11;;;;;;;11.20;2.63;;;;;;;20.52;100.00;100523.00;4965716;28;20490;-87
2023/07/11 06:35:39;;;;;;;14.05;3.72;;;;;;;19.91;100.00;100566.44;4965085;28;20047;-85
2023/07/11 06:38:05;;;;;;;8.20;3.25;;;;;;;20.29;100.00;100613.25;4962299;28;20030;-87
2023/07/11 06:40:30;;;;;;;6.10;2.47;;;;;;;20.88;100.00;100578.97;4968607;28;20118;-88
2023/07/11 06:42:55;;;;;;;11.37;2.77;;;;;;;21.76;100.00;100514.66;4968491;28;20023;-87
2023/07/11 06:45:21;;;;;;;9.43;2.67;;;;;;;22.07;100.00;100387.47;4945763;28;20035;-87
2023/07/11 06:47:46;;;;;;;6.40;2.30;;;;;;;22.32;100.00;100341.69;4965883;28;20042;-87
2023/07/11 06:50:12;;;;;;;6.80;2.03;;;;;;;22.58;100.00;100252.25;4953080;28;20054;-85
2023/07/11 06:52:37;;;;;;;8.03;2.43;;;;;;;22.97;100.00;100322.91;4960701;28;20324;-86
2023/07/11 06:55:03;;;;;;;5.22;2.10;;;;;;;23.09;99.31;100246.59;4968293;28;20047;-87
2023/07/11 06:57:28;;;;;;;5.97;1.90;;;;;;;23.01;98.64;100266.91;4953962;28;20046;-89
2023/07/11 06:59:53;;;;;;;7.47;2.37;;;;;;;22.61;96.23;100077.63;4962382;28;20036;-87
2023/07/11 07:02:19;;;;;;;6.27;2.23;;;;;;;23.14;94.57;100168.47;4968026;28;20470;-87
2023/07/11 07:04:44;;;;;;;6.17;2.00;;;;;;;22.45;98.21;100317.91;4942978;29;20271;-89
2023/07/11 07:07:09;;;;;;;20.83;2.57;;;;;;;21.56;98.60;100147.59;4942041;28;20043;-89
2023/07/11 07:09:35;;;;;;;3.80;2.03;;;;;;;20.66;100.00;100264.91;4934818;28;20079;-89
2023/07/11 07:12:00;;;;;;;7.73;2.17;;;;;;;20.71;100.00;100459.50;4952920;28;20032;-89
2023/07/11 07:14:25;;;;;;;9.67;1.90;;;;;;;22.10;100.00;100466.66;4967905;28;20031;-85
2023/07/11 07:16:51;;;;;;;5.60;2.33;;;;;;;22.43;98.27;100379.88;4948197;29;20047;-85
2023/07/11 07:19:16;;;;;;;5.93;2.37;;;;;;;22.51;95.17;100229.88;4959408;28;20030;-85
2023/07/11 07:21:41;;;;;;;11.50;2.43;;;;;;;22.59;93.64;100194.03;4970313;28;20028;-86
2023/07/11 07:24:07;;;;;;;4.27;2.17;;;;;;;21.99;94.47;100156.88;4969603;28;20414;-86
2023/07/11 07:26:32;;;;;;;6.00;1.95;;;;;;;22.37;92.40;100147.03;4953132;28;20024;-86
2023/07/11 07:28:58;;;;;;;5.23;2.17;;;;;;;22.32;93.04;100204.91;4939607;29;20034;-86
2023/07/11 07:31:24;;;;;;;6.25;2.83;;;;;;;21.95;94.36;100223.69;4963756;28;20122;-87
2023/07/11 07:33:50;;;;;;;;;;;;;;;22.83;91.78;100272.66;4955549;28;20425;-87
2023/07/11 07:36:15;;;;;;;4.68;2.72;;;;;;;23.58;88.29;100198.22;4954152;28;20001;-86
2023/07/11 07:38:40;;;;;;;7.27;2.23;;;;;;;23.92;84.67;100039.81;4927150;29;20028;-88
2023/07/11 07:41:09;;;;;;;11.97;1.83;;;;;;;23.73;83.75;99990.38;4949494;28;20039;-87
2023/07/11 07:43:36;;;;;;;6.65;2.25;;;;;;;23.78;83.85;100047.66;4958075;28;20024;-85
2023/07/11 07:46:03;;;;;;;6.68;2.30;;;;;;;23.52;83.14;100000.38;4938582;29;20622;-84
2023/07/11 07:48:29;;;;;;;8.77;2.10;;;;;;;23.25;84.36;100060.47;4966310;28;20026;-88
2023/07/11 07:51:11;;;;;;;6.32;2.15;;;;;;;23.33;86.85;100253.31;4952413;29;20091;-87
2023/07/11 07:53:37;;;;;;;4.20;1.88;;;;;;;24.41;83.23;100207.66;4958934;28;20067;-86
2023/07/11 07:56:08;;;;;;;7.67;2.00;;;;;;;24.12;81.07;99980.97;4971221;28;20027;-86
2023/07/11 07:58:34;;;;;;;5.55;2.20;;;;;;;24.63;80.35;100080.06;4954049;28;20286;-84
2023/07/11 08:00:59;;;;;;;6.28;2.08;;;;;;;25.29;77.65;100007.38;4957552;28;20717;-88
2023/07/11 08:03:24;;;;;;;5.70;2.13;;;;;;;25.05;76.56;99884.25;4968452;28;20031;-85
2023/07/11 08:05:53;;;;;;;7.10;2.37;;;;;;;25.18;75.66;99880.94;4943266;29;20478;-88
2023/07/11 08:08:21;;;;;;;6.75;1.90;;;;;;;24.42;76.41;99830.94;4962646;28;20067;-86
2023/07/11 08:10:47;;;;;;;7.67;2.00;;;;;;;25.09;75.98;99975.44;4932862;29;20059;-87
2023/07/11 08:13:12;;;;;;;6.72;2.13;;;;;;;25.15;73.62;99805.00;4948055;28;20036;-86
2023/07/11 08:15:38;;;;;;;10.17;3.03;;;;;;;24.12;74.88;99713.75;4949336;29;20035;-89
2023/07/11 08:18:03;;;;;;;4.85;1.77;;;;;;;24.41;73.03;99619.25;4952238;28;20035;-82
2023/07/11 08:20:28;;;;;;;6.47;1.40;;;;;;;24.41;72.89;99668.34;4969478;28;20049;-85
2023/07/11 08:22:54;;;;;;;5.68;1.55;;;;;;;24.13;73.20;99688.13;4968806;28;20031;-86
2023/07/11 08:25:20;;;;;;;9.90;2.00;;;;;;;24.84;73.15;99900.72;4949545;28;20683;-86
2023/07/11 08:27:45;;;;;;;4.82;1.63;;;;;;;24.71;72.70;99803.03;4963305;28;20115;-86
2023/07/11 08:30:11;;;;;;;8.70;2.13;;;;;;;24.87;71.52;99751.13;4958242;28;20023;-86
2023/07/11 08:32:38;;;;;;;6.28;1.75;;;;;;;25.35;69.21;99617.50;4963858;28;20569;-86
2023/07/11 08:35:05;;;;;;;4.18;1.83;;;;;;;24.86;70.61;99744.81;4953069;29;20054;-86
2023/07/11 08:37:30;;;;;;;7.18;2.00;;;;;;;24.57;69.93;99613.75;4963821;28;20050;-88
2023/07/11 08:39:56;;;;;;;8.00;2.30;;;;;;;25.35;69.37;99806.00;4967387;28;20430;-88
2023/07/11 08:42:34;;;;;;;5.97;1.90;;;;;;;25.03;69.19;99696.13;4949982;28;20390;-89
2023/07/11 08:45:21;;;;;;;5.10;1.90;;;;;;;25.21;68.39;99675.53;4963724;28;20049;-88
2023/07/11 08:47:57;;;;;;;4.25;1.73;;;;;;;25.13;67.52;99575.09;4946643;29;20239;-86
2023/07/11 08:50:32;;;;;;;7.65;1.70;;;;;;;24.92;68.26;99682.84;4940580;29;20027;-88
2023/07/11 08:53:20;;;;;;;4.90;1.73;;;;;;;25.19;66.56;99527.56;4950805;29;20725;-88
2023/07/11 08:55:51;;;;;;;6.32;1.77;;;;;;;25.23;65.50;99419.34;4966993;28;20047;-83
2023/07/11 08:58:32;;;;;;;4.43;1.73;;;;;;;25.34;66.13;99550.34;4958636;28;20050;-88
2023/07/11 09:01:02;;;;;;;6.97;1.83;;;;;;;25.26;65.48;99447.97;4959191;28;20042;-87
2023/07/11 09:03:46;;;;;;;4.10;2.00;;;;;;;25.58;66.38;99676.84;4964933;28;20031;-86
2023/07/11 09:06:17;;;;;;;5.25;1.88;;;;;;;25.56;64.91;99506.09;4959158;28;20039;-87
2023/07/11 09:08:45;;;;;;;4.60;1.90;;;;;;;25.48;64.52;99455.66;4966644;28;20039;-88
2023/07/11 09:11:37;;;;;;;4.30;2.60;;;;;;;25.93;65.62;99737.78;4951879;28;20027;-89
2023/07/11 09:14:27;;;;;;;9.30;1.80;;;;;;;25.66;64.19;99479.47;4942530;28;20031;-89
2023/07/11 09:17:01;;;;;;;4.95;1.85;;;;;;;25.79;63.75;99543.50;4948939;28;20198;-89
2023/07/11 09:19:36;;;;;;;4.40;1.40;;;;;;;26.21;63.59;99599.34;4930911;29;20063;-85
2023/07/11 09:22:19;;;;;;;7.78;2.47;;;;;;;26.34;61.91;99439.13;4942869;29;20039;-88
2023/07/11 09:25:21;;;;;;;5.43;1.77;;;;;;;26.34;62.00;99499.31;4945722;28;20039;-89
2023/07/11 09:27:57;;;;;;;4.68;2.00;;;;;;;26.39;60.91;99378.03;4956744;28;20032;-89
2023/07/11 09:30:31;;;;;;;7.90;2.17;;;;;;;27.33;59.61;99525.56;4958305;28;20035;-87
2023/07/11 09:33:10;;;;;;;3.70;1.92;;;;;;;27.06;59.04;99388.53;4965798;28;20055;-89
2023/07/11 09:35:37;;;;;;;4.03;2.03;;;;;;;27.30;58.27;99350.81;4965880;28;20480;-87
2023/07/11 09:38:17;;;;;;;4.10;1.98;;;;;;;26.62;57.49;99034.16;4955595;28;20031;-86
2023/07/11 09:41:02;;;;;;;3.28;1.75;;;;;;;26.23;59.09;99180.53;4941972;29;20090;-86
2023/07/11 09:43:28;;;;;;;4.38;2.03;;;;;;;25.74;60.04;99169.13;4949756;29;20063;-88
2023/07/11 09:45:54;;;;;;;4.55;1.80;;;;;;;26.23;60.57;99380.22;4952023;28;20465;-88
2023/07/11 09:48:28;;;;;;;10.15;2.55;;;;;;;26.23;60.04;99311.84;4953462;28;20035;-86
2023/07/11 09:51:10;;;;;;;4.53;1.88;;;;;;;26.29;60.19;99379.00;4967994;28;20035;-87
2023/07/11 09:53:35;;;;;;;3.70;1.50;;;;;;;26.73;59.24;99399.59;4954233;28;20043;-86
2023/07/11 09:56:03;;;;;;;2.30;1.73;;;;;;;27.35;58.59;99441.13;4952428;29;20031;-85
2023/07/11 09:58:32;;;;;;;5.15;1.63;;;;;;;26.81;58.73;99253.81;4968280;28;20318;-86
2023/07/11 10:01:04;;;;;;;6.00;1.65;;;;;;;26.08;58.01;99048.47;4952606;29;20126;-85
2023/07/11 10:03:34;;;;;;;5.40;2.35;;;;;;;26.48;58.63;99275.78;4961414;28;20191;-86
2023/07/11 10:06:01;;;;;;;8.05;2.03;;;;;;;26.99;57.98;99327.91;4969240;28;20057;-86
2023/07/11 10:08:29;;;;;;;4.20;2.00;;;;;;;26.83;58.07;99215.97;4961231;28;20019;-84
2023/07/11 10:11:03;;;;;;;2.58;1.70;;;;;;;26.94;56.20;99053.06;4970635;28;20035;-86
2023/07/11 10:13:28;;;;;;;3.47;1.80;;;;;;;27.19;55.27;99031.63;4961250;28;20874;-85
2023/07/11 10:15:55;;;;;;;4.95;1.73;;;;;;;26.94;54.76;98894.25;4954474;28;20038;-85
2023/07/11 10:18:33;;;;;;;6.80;2.40;;;;;;;26.87;53.96;98783.59;4957433;28;20106;-84
2023/07/11 10:21:14;;;;;;;6.93;1.80;;;;;;;27.03;53.51;98803.13;4968367;28;20055;-85
2023/07/11 10:23:42;;;;;;;3.50;1.65;;;;;;;27.55;52.41;98823.19;4934517;29;20040;-86
2023/07/11 10:26:10;;;;;;;4.30;1.55;;;;;;;27.71;53.41;99004.44;4931010;29;20115;-86
2023/07/11 10:28:39;;;;;;;3.53;1.40;;;;;;;28.05;52.82;99046.81;4938908;29;20051;-86
2023/07/11 10:31:18;;;;;;;4.90;2.10;;;;;;;27.40;51.97;98733.25;4938637;29;20023;-84
2023/07/11 10:34:02;;;;;;;2.13;1.30;;;;;;;28.21;51.40;98984.06;4955812;28;20099;-85
2023/07/11 10:36:33;;;;;;;3.53;2.08;;;;;;;27.76;50.50;98642.41;4968609;28;20038;-87
2023/07/11 10:39:09;;;;;;;8.25;1.60;;;;;;;27.97;50.44;98737.72;4944619;28;20098;-86
2023/07/11 10:41:52;;;;;;;5.72;1.50;;;;;;;27.34;50.87;98601.09;4968563;28;20031;-87
2023/07/11 10:44:23;;;;;;;4.18;1.60;;;;;;;28.29;50.20;98908.38;4952715;29;20066;-86
2023/07/11 10:46:51;;;;;;;7.90;2.25;;;;;;;28.44;49.05;98739.66;4948168;28;20599;-85
2023/07/11 10:49:36;;;;;;;5.95;1.73;;;;;;;28.69;48.19;98770.88;4965873;28;20019;-87
2023/07/11 10:52:19;;;;;;;3.95;1.45;;;;;;;28.78;48.33;98807.34;4965574;28;20063;-86
2023/07/11 10:55:09;;;;;;;2.35;1.70;;;;;;;28.37;48.72;98699.00;4945247;28;20040;-87
2023/07/11 10:57:38;;;;;;;3.17;1.50;;;;;;;28.07;49.58;98763.97;4951413;28;20077;-85
2023/07/11 11:00:25;;;;;;;4.28;1.75;;;;;;;28.57;49.85;98966.47;4964863;28;20446;-85
2023/07/11 11:03:00;;;;;;;5.32;1.60;;;;;;;27.48;49.22;98392.66;4947721;29;20046;-86
2023/07/11 11:05:47;;;;;;;4.28;1.70;;;;;;;28.32;49.80;98839.13;4953153;29;20532;-87
2023/07/11 11:08:23;;;;;;;4.45;1.70;;;;;;;28.45;49.19;98758.53;4953254;28;20111;-86
2023/07/11 11:11:11;;;;;;;4.38;1.70;;;;;;;28.78;49.05;98856.78;4945117;28;20031;-86
2023/07/11 11:13:58;;;;;;;3.80;1.80;;;;;;;29.08;48.34;98874.09;4960364;28;20071;-85
2023/07/11 11:16:34;;;;;;;4.45;1.83;;;;;;;28.98;47.88;98682.16;4956197;28;20043;-86
2023/07/11 11:19:26;;;;;;;5.30;1.50;;;;;;;28.82;49.11;98866.75;4958899;28;20036;-86
2023/07/11 11:21:59;;;;;;;4.40;2.10;;;;;;;28.35;48.99;98731.44;4950290;28;20035;-86
2023/07/11 11:24:57;;;;;;;5.65;1.45;;;;;;;28.21;48.00;98501.22;4947755;29;20497;-86
2023/07/11 11:28:00;;;;;;;3.53;2.03;;;;;;;28.96;48.20;98794.31;4954754;28;20028;-88
2023/07/11 11:30:42;;;;;;;4.38;1.75;;;;;;;28.61;47.72;98558.41;4951280;29;20039;-85
2023/07/11 11:33:38;;;;;;;3.08;1.40;;;;;;;28.42;47.34;98493.81;4939504;29;20078;-88